Time;durP1;ratioP1;P1;durP2;ratioP2;P2;SDS_P1;SDS_P2;PMS_P1;PMS_P2;Temp;Humidity;BMP_temperature;BMP_pressure;BME280_temperature;BME280_humidity;BME280_pressure;Samples;Min_cycle;Max_cycle;Signal;HPM_P1;HPM_P2
2021/08/25 00:01:05;;;;;;;3.78;1.75;;;15.50;79.10;;;;;;5036764;28;20025;-62
2021/08/25 00:03:31;;;;;;;2.80;1.60;;;15.50;79.10;;;;;;5053738;28;20025;-62
2021/08/25 00:05:56;;;;;;;3.20;1.92;;;15.50;79.30;;;;;;5054136;28;20534;-61
2021/08/25 00:08:22;;;;;;;4.45;1.80;;;15.50;79.30;;;;;;5036354;28;20052;-61
2021/08/25 00:10:47;;;;;;;3.00;1.70;;;15.40;79.30;;;;;;5053813;28;20037;-62
2021/08/25 00:13:13;;;;;;;2.88;1.65;;;15.40;79.60;;;;;;5054110;28;20017;-62
2021/08/25 00:15:41;;;;;;;3.50;1.33;;;15.40;79.70;;;;;;5035871;28;20082;-62
2021/08/25 00:18:07;;;;;;;3.33;1.98;;;15.30;79.70;;;;;;5053820;28;20078;-62
2021/08/25 00:20:33;;;;;;;2.92;1.52;;;15.30;79.80;;;;;;5053692;28;20029;-62
2021/08/25 00:22:59;;;;;;;3.80;1.60;;;15.30;79.90;;;;;;5053803;28;20028;-62
2021/08/25 00:25:27;;;;;;;2.60;1.35;;;15.20;79.90;;;;;;5035691;28;20381;-62
2021/08/25 00:27:52;;;;;;;4.40;1.98;;;15.20;80.10;;;;;;5053546;28;20021;-62
2021/08/25 00:30:18;;;;;;;3.05;1.92;;;15.20;80.20;;;;;;5053603;28;20032;-61
2021/08/25 00:32:43;;;;;;;3.40;1.77;;;15.10;80.30;;;;;;5053661;28;20399;-62
2021/08/25 00:35:11;;;;;;;2.85;1.80;;;15.10;80.40;;;;;;5035430;28;20017;-62
2021/08/25 00:37:37;;;;;;;3.42;1.67;;;15.10;80.40;;;;;;5053575;28;20021;-62
2021/08/25 00:40:03;;;;;;;2.67;1.77;;;15.10;80.60;;;;;;5035487;28;20017;-62
2021/08/25 00:42:28;;;;;;;3.53;1.88;;;15.10;80.60;;;;;;5053278;28;20029;-62
2021/08/25 00:44:54;;;;;;;3.08;1.88;;;15.00;80.60;;;;;;5053167;28;20381;-62
2021/08/25 00:47:20;;;;;;;4.20;2.20;;;15.00;80.70;;;;;;5035362;28;20040;-62
2021/08/25 00:49:45;;;;;;;5.68;3.08;;;15.00;80.80;;;;;;5034236;28;20021;-62
2021/08/25 00:52:11;;;;;;;4.13;1.85;;;14.90;81.00;;;;;;5052748;28;20052;-62
2021/08/25 00:54:37;;;;;;;4.35;2.30;;;14.90;81.40;;;;;;5052861;28;20511;-62
2021/08/25 00:57:04;;;;;;;3.55;1.90;;;14.90;81.40;;;;;;5035202;28;20116;-61
2021/08/25 00:59:32;;;;;;;3.15;1.80;;;14.80;81.30;;;;;;5035239;28;20051;-62
2021/08/25 01:02:07;;;;;;;4.18;2.17;;;14.80;81.40;;;;;;5052792;28;20025;-62
2021/08/25 01:04:53;;;;;;;3.40;1.90;;;14.80;81.50;;;;;;5034745;28;20047;-61
2021/08/25 01:07:23;;;;;;;3.60;1.98;;;14.80;81.60;;;;;;5033119;28;20021;-62
2021/08/25 01:09:52;;;;;;;3.88;2.20;;;14.70;81.80;;;;;;5052868;28;20083;-62
2021/08/25 01:12:22;;;;;;;3.47;1.80;;;14.70;82.00;;;;;;5035046;28;20024;-61
2021/08/25 01:14:48;;;;;;;4.85;2.20;;;14.60;82.10;;;;;;5052852;28;20064;-61
2021/08/25 01:17:27;;;;;;;3.40;2.15;;;14.60;82.20;;;;;;5034649;28;20024;-62
2021/08/25 01:20:03;;;;;;;4.30;2.00;;;14.60;82.30;;;;;;5052506;28;20031;-61
2021/08/25 01:22:29;;;;;;;3.38;2.08;;;14.50;82.50;;;;;;5034543;28;20029;-61
2021/08/25 01:24:56;;;;;;;4.57;2.35;;;14.50;82.70;;;;;;5034907;28;20021;-61
2021/08/25 01:27:25;;;;;;;4.28;2.60;;;14.50;82.90;;;;;;5034679;28;20021;-62
2021/08/25 01:29:52;;;;;;;4.50;2.33;;;14.40;83.20;;;;;;5052220;28;20547;-61
2021/08/25 01:32:18;;;;;;;3.90;2.20;;;14.40;83.40;;;;;;5052358;28;20033;-62
2021/08/25 01:34:58;;;;;;;5.68;2.55;;;14.40;83.50;;;;;;5052298;28;20044;-62
2021/08/25 01:37:25;;;;;;;5.95;2.90;;;14.40;83.60;;;;;;5052335;28;20074;-62
2021/08/25 01:39:52;;;;;;;3.78;2.05;;;14.30;83.90;;;;;;5034450;28;20029;-62
2021/08/25 01:42:22;;;;;;;3.22;2.05;;;14.30;84.10;;;;;;5052213;28;20017;-61
2021/08/25 01:44:48;;;;;;;4.35;2.35;;;14.30;84.20;;;;;;5034276;28;20025;-61
2021/08/25 01:47:15;;;;;;;4.00;2.10;;;14.20;84.30;;;;;;5034509;28;20529;-61
2021/08/25 01:49:44;;;;;;;5.20;2.50;;;14.20;84.50;;;;;;5033855;28;20166;-62
2021/08/25 01:52:10;;;;;;;3.33;1.77;;;14.20;84.60;;;;;;5033516;28;20049;-61
2021/08/25 01:54:36;;;;;;;5.30;2.35;;;14.20;84.70;;;;;;5052342;28;20021;-62
2021/08/25 01:57:02;;;;;;;3.20;1.90;;;14.20;84.80;;;;;;5039568;28;20025;-61
2021/08/25 01:59:28;;;;;;;2.75;1.80;;;14.20;84.80;;;;;;5043028;28;20017;-61
2021/08/25 02:01:53;;;;;;;5.32;2.30;;;14.10;84.90;;;;;;5033546;28;20016;-61
2021/08/25 02:04:19;;;;;;;5.25;2.05;;;14.10;85.00;;;;;;5051804;28;20143;-61
2021/08/25 02:06:44;;;;;;;3.55;2.00;;;14.10;85.20;;;;;;5051709;28;20024;-61
2021/08/25 02:09:10;;;;;;;6.43;2.20;;;14.00;85.30;;;;;;5033890;28;20378;-61
2021/08/25 02:11:36;;;;;;;3.65;1.92;;;14.00;85.50;;;;;;5051591;28;20387;-62
2021/08/25 02:14:01;;;;;;;4.70;2.70;;;14.00;85.80;;;;;;5032245;28;20029;-62
2021/08/25 02:16:27;;;;;;;3.60;2.33;;;14.00;85.90;;;;;;5033963;28;20021;-61
2021/08/25 02:18:53;;;;;;;4.03;2.58;;;13.90;86.00;;;;;;5033712;28;20056;-61
2021/08/25 02:21:21;;;;;;;3.83;2.53;;;13.90;86.30;;;;;;5051615;28;20028;-61
2021/08/25 02:23:46;;;;;;;4.70;2.75;;;13.80;86.60;;;;;;5051697;28;20048;-62
2021/08/25 02:26:16;;;;;;;5.93;2.65;;;13.80;86.80;;;;;;5051253;28;20108;-61
2021/08/25 02:28:43;;;;;;;3.97;2.58;;;13.80;87.00;;;;;;5051725;28;20037;-61
2021/08/25 02:31:08;;;;;;;4.60;2.47;;;13.80;87.20;;;;;;5033640;28;20053;-62
2021/08/25 02:33:34;;;;;;;5.55;2.50;;;13.70;87.40;;;;;;5043312;28;20443;-61
2021/08/25 02:35:59;;;;;;;5.07;2.92;;;13.70;87.70;;;;;;5051227;28;20172;-61
2021/08/25 02:38:25;;;;;;;4.05;2.45;;;13.60;87.80;;;;;;5051639;28;20071;-62
2021/08/25 02:40:50;;;;;;;6.20;3.30;;;13.60;88.00;;;;;;5051180;28;20071;-61
2021/08/25 02:43:16;;;;;;;5.22;3.05;;;13.60;88.30;;;;;;5050081;28;20028;-61
2021/08/25 02:45:41;;;;;;;5.22;2.88;;;13.50;88.50;;;;;;5051563;28;20049;-62
2021/08/25 02:48:07;;;;;;;4.22;2.58;;;13.50;88.70;;;;;;5051440;28;20096;-62
2021/08/25 02:50:32;;;;;;;4.25;2.38;;;13.50;88.90;;;;;;5050127;28;20122;-62
2021/08/25 02:52:58;;;;;;;4.68;2.92;;;13.50;89.00;;;;;;5048078;28;20040;-62
2021/08/25 02:55:23;;;;;;;4.43;2.67;;;13.50;89.10;;;;;;5053394;28;20103;-62
2021/08/25 02:57:49;;;;;;;3.95;2.35;;;13.50;89.30;;;;;;5048007;28;20016;-61
2021/08/25 03:00:15;;;;;;;4.90;2.85;;;13.40;89.40;;;;;;5053329;28;20146;-61
2021/08/25 03:02:40;;;;;;;4.03;2.53;;;13.40;89.70;;;;;;5053416;28;20093;-61
2021/08/25 03:05:06;;;;;;;4.20;2.60;;;13.40;89.90;;;;;;5053300;28;20019;-61
2021/08/25 03:07:32;;;;;;;6.70;2.70;;;13.30;90.00;;;;;;5071071;28;20112;-62
2021/08/25 03:09:57;;;;;;;5.13;2.45;;;13.30;90.20;;;;;;5053098;28;20025;-61
2021/08/25 03:12:23;;;;;;;4.93;3.05;;;13.30;90.20;;;;;;5071667;28;20488;-61
2021/08/25 03:14:48;;;;;;;4.80;2.92;;;13.20;90.30;;;;;;5057262;28;20419;-61
2021/08/25 03:17:14;;;;;;;5.00;3.05;;;13.20;90.70;;;;;;5074685;28;20082;-61
2021/08/25 03:19:40;;;;;;;5.45;3.38;;;13.10;90.60;;;;;;5057257;28;20021;-61
2021/08/25 03:22:05;;;;;;;5.53;3.38;;;13.10;90.90;;;;;;5056743;28;20017;-61
2021/08/25 03:24:31;;;;;;;4.47;3.17;;;13.00;91.10;;;;;;5073349;28;20116;-62
2021/08/25 03:26:57;;;;;;;5.28;3.80;;;13.00;91.20;;;;;;5074726;28;20074;-61
2021/08/25 03:29:22;;;;;;;5.40;3.30;;;13.00;91.20;;;;;;5074950;28;20030;-61
2021/08/25 03:31:48;;;;;;;5.43;2.75;;;13.00;91.20;;;;;;5074772;28;20031;-62
2021/08/25 03:34:13;;;;;;;3.75;2.30;;;13.10;91.20;;;;;;5074541;28;20025;-61
2021/08/25 03:36:39;;;;;;;5.80;3.22;;;13.00;91.20;;;;;;5074721;28;20021;-61
2021/08/25 03:39:04;;;;;;;3.92;2.35;;;13.00;91.30;;;;;;5074282;28;20021;-61
2021/08/25 03:41:30;;;;;;;5.00;2.70;;;13.00;91.30;;;;;;5056653;28;20021;-61
2021/08/25 03:43:55;;;;;;;4.95;2.75;;;13.10;91.40;;;;;;5074525;28;20021;-62
2021/08/25 03:46:21;;;;;;;5.10;3.13;;;13.00;91.40;;;;;;5074715;28;20529;-61
2021/08/25 03:48:47;;;;;;;5.15;2.80;;;13.00;91.50;;;;;;5074595;28;20025;-62
2021/08/25 03:51:12;;;;;;;4.35;2.63;;;13.00;91.50;;;;;;5056207;28;20162;-62
2021/08/25 03:53:37;;;;;;;4.13;2.72;;;13.00;91.60;;;;;;5053959;28;20103;-61
2021/08/25 03:56:03;;;;;;;4.97;2.40;;;12.90;91.60;;;;;;5074290;28;20027;-61
2021/08/25 03:58:29;;;;;;;4.63;2.83;;;12.90;91.70;;;;;;5074223;28;20403;-61
2021/08/25 04:00:55;;;;;;;5.25;2.45;;;12.90;91.80;;;;;;5074253;28;20420;-61
2021/08/25 04:03:20;;;;;;;4.28;2.42;;;12.90;91.80;;;;;;5056257;28;20416;-61
2021/08/25 04:05:46;;;;;;;3.53;2.58;;;12.90;91.80;;;;;;5074138;28;20039;-61
2021/08/25 04:08:11;;;;;;;4.57;2.20;;;12.90;91.90;;;;;;5073725;28;20491;-61
2021/08/25 04:10:40;;;;;;;6.25;2.13;;;12.90;91.90;;;;;;5074467;28;20468;-61
2021/08/25 04:13:06;;;;;;;4.07;2.53;;;12.90;92.00;;;;;;5056081;28;20171;-61
2021/08/25 04:15:31;;;;;;;4.97;2.60;;;12.90;92.00;;;;;;5073837;28;20119;-61
2021/08/25 04:17:57;;;;;;;4.32;2.80;;;12.90;92.10;;;;;;5073847;28;20495;-61
2021/08/25 04:20:22;;;;;;;5.07;2.85;;;12.80;92.10;;;;;;5073928;28;20025;-61
2021/08/25 04:22:48;;;;;;;6.50;2.63;;;12.80;92.10;;;;;;5073726;28;20063;-61
2021/08/25 04:25:13;;;;;;;5.60;2.92;;;12.80;92.20;;;;;;5073385;28;20021;-61
2021/08/25 04:27:39;;;;;;;4.82;2.88;;;12.80;92.30;;;;;;5073889;28;20016;-61
2021/08/25 04:30:05;;;;;;;6.03;3.35;;;12.80;92.40;;;;;;5055895;28;20103;-61
2021/08/25 04:32:31;;;;;;;4.45;2.70;;;12.80;92.40;;;;;;5073458;28;20067;-61
2021/08/25 04:34:57;;;;;;;4.57;2.42;;;12.70;92.50;;;;;;5073709;28;20108;-61
2021/08/25 04:37:22;;;;;;;3.85;2.67;;;12.80;92.80;;;;;;5055399;28;20142;-61
2021/08/25 04:39:48;;;;;;;18.30;3.03;;;12.70;92.60;;;;;;5073454;28;20073;-61
2021/08/25 04:42:15;;;;;;;4.55;2.60;;;12.70;92.70;;;;;;5055400;28;20020;-62
2021/08/25 04:44:41;;;;;;;4.93;2.75;;;12.70;92.70;;;;;;5073414;28;20060;-61
2021/08/25 04:47:07;;;;;;;4.20;2.42;;;12.70;92.70;;;;;;5073406;28;20051;-61
2021/08/25 04:49:37;;;;;;;4.22;2.53;;;12.70;92.70;;;;;;5073081;28;20036;-61
2021/08/25 04:52:03;;;;;;;5.03;3.05;;;12.70;92.80;;;;;;5054924;28;20090;-61
2021/08/25 04:54:29;;;;;;;5.18;2.83;;;12.70;92.80;;;;;;5073286;28;20024;-61
2021/08/25 04:56:57;;;;;;;3.65;2.50;;;12.70;92.90;;;;;;5072928;28;20016;-61
2021/08/25 04:59:22;;;;;;;4.45;2.80;;;12.60;92.90;;;;;;5073215;28;20468;-61
2021/08/25 05:01:48;;;;;;;3.95;2.45;;;12.70;93.00;;;;;;5073042;28;20024;-61
2021/08/25 05:04:13;;;;;;;4.65;3.08;;;12.70;93.10;;;;;;5072705;28;20098;-62
2021/08/25 05:06:39;;;;;;;4.22;2.47;;;12.70;93.10;;;;;;5054785;28;20487;-61
2021/08/25 05:09:05;;;;;;;6.93;2.97;;;12.70;93.10;;;;;;5070060;28;20035;-61
2021/08/25 05:11:30;;;;;;;5.82;2.97;;;12.70;93.20;;;;;;5066538;28;20041;-61
2021/08/25 05:13:56;;;;;;;4.60;2.92;;;12.70;93.20;;;;;;5065067;28;20032;-61
2021/08/25 05:16:21;;;;;;;4.88;2.83;;;12.70;93.30;;;;;;5073523;28;20035;-61
2021/08/25 05:18:47;;;;;;;4.13;2.75;;;12.70;93.30;;;;;;5073764;28;20422;-61
2021/08/25 05:21:12;;;;;;;3.85;2.55;;;12.70;93.40;;;;;;5055410;28;20025;-61
2021/08/25 05:23:38;;;;;;;3.90;2.45;;;12.70;93.40;;;;;;5055590;28;20020;-61
2021/08/25 05:26:07;;;;;;;5.38;2.83;;;12.70;93.40;;;;;;5073257;28;20020;-61
2021/08/25 05:28:34;;;;;;;4.03;2.40;;;12.70;93.50;;;;;;5055285;28;20134;-61
2021/08/25 05:30:59;;;;;;;3.20;2.08;;;12.70;93.50;;;;;;5073445;28;20469;-61
2021/08/25 05:33:25;;;;;;;5.22;2.10;;;12.70;93.60;;;;;;5073131;28;20025;-61
2021/08/25 05:35:50;;;;;;;6.50;3.35;;;12.70;93.80;;;;;;5072510;28;20059;-61
2021/08/25 05:38:16;;;;;;;4.75;2.70;;;12.70;93.80;;;;;;5055175;28;20174;-61
2021/08/25 05:40:41;;;;;;;3.10;2.10;;;12.70;93.90;;;;;;5055238;28;20044;-61
2021/08/25 05:43:07;;;;;;;4.18;2.25;;;12.70;93.90;;;;;;5073153;28;20031;-61
2021/08/25 05:45:33;;;;;;;6.15;3.10;;;12.80;94.00;;;;;;5055192;28;20471;-61
2021/08/25 05:47:58;;;;;;;3.80;2.25;;;12.80;94.00;;;;;;5073102;28;20035;-61
2021/08/25 05:50:27;;;;;;;3.78;2.50;;;12.90;94.00;;;;;;5072930;28;20055;-61
2021/08/25 05:52:53;;;;;;;4.85;3.13;;;12.90;94.10;;;;;;5072825;28;20044;-61
2021/08/25 05:55:19;;;;;;;4.88;2.80;;;12.90;94.10;;;;;;5072769;28;20029;-62
2021/08/25 05:57:47;;;;;;;4.88;3.13;;;13.00;94.20;;;;;;5054965;28;20365;-61
2021/08/25 06:00:14;;;;;;;5.13;2.90;;;13.00;94.20;;;;;;5072834;28;20024;-61
2021/08/25 06:02:41;;;;;;;4.63;3.03;;;13.00;94.20;;;;;;5072975;28;20028;-61
2021/08/25 06:05:07;;;;;;;4.78;3.20;;;13.10;94.30;;;;;;5071846;28;20110;-61
2021/08/25 06:07:33;;;;;;;7.57;3.47;;;13.10;94.30;;;;;;5072861;28;20031;-61
2021/08/25 06:10:22;;;;;;;5.88;3.30;;;13.10;94.40;;;;;;5053617;28;20020;-61
2021/08/25 06:12:48;;;;;;;4.32;3.35;;;13.10;94.50;;;;;;5053650;28;20059;-61
2021/08/25 06:15:13;;;;;;;6.90;3.92;;;13.20;94.50;;;;;;5070203;28;20068;-61
2021/08/25 06:17:39;;;;;;;6.80;3.25;;;13.20;94.60;;;;;;5054363;28;20070;-61
2021/08/25 06:20:05;;;;;;;5.70;3.65;;;13.20;94.60;;;;;;5054470;28;20027;-61
2021/08/25 06:23:21;;;;;;;5.38;3.90;;;13.30;94.70;;;;;;5054651;28;20028;-61
2021/08/25 06:25:49;;;;;;;5.95;3.70;;;13.30;94.80;;;;;;5065543;28;20079;-61
2021/08/25 06:28:15;;;;;;;5.47;3.95;;;13.30;94.90;;;;;;5072106;28;20434;-61
2021/08/25 06:30:40;;;;;;;6.00;4.25;;;13.30;94.90;;;;;;5054010;28;20074;-61
2021/08/25 06:33:06;;;;;;;7.07;4.13;;;13.40;95.00;;;;;;5054202;28;20028;-62
2021/08/25 06:35:31;;;;;;;6.55;4.45;;;13.40;95.00;;;;;;5071618;28;20025;-61
2021/08/25 06:37:57;;;;;;;8.50;4.32;;;13.50;95.10;;;;;;5071934;28;20027;-62
2021/08/25 06:40:22;;;;;;;6.80;4.40;;;13.50;95.10;;;;;;5071944;28;20017;-61
2021/08/25 06:42:48;;;;;;;7.20;4.53;;;13.60;95.20;;;;;;5071880;28;20025;-61
2021/08/25 06:45:13;;;;;;;9.27;5.05;;;13.60;95.30;;;;;;5071878;28;20472;-61
2021/08/25 06:47:39;;;;;;;9.23;4.50;;;13.70;95.40;;;;;;5072904;28;20031;-62
2021/08/25 06:50:06;;;;;;;6.43;4.60;;;13.70;95.50;;;;;;5058037;28;20027;-61
2021/08/25 06:52:31;;;;;;;8.52;5.32;;;13.80;95.60;;;;;;5071489;28;20063;-61
2021/08/25 06:54:57;;;;;;;8.13;4.97;;;13.90;95.70;;;;;;5075320;28;20017;-61
2021/08/25 06:57:22;;;;;;;6.25;5.00;;;13.90;95.70;;;;;;5057791;28;20115;-61
2021/08/25 06:59:48;;;;;;;6.68;4.53;;;14.00;95.80;;;;;;5072001;28;20063;-61
2021/08/25 07:02:13;;;;;;;6.30;4.15;;;14.10;95.80;;;;;;5074608;28;20024;-61
2021/08/25 07:04:48;;;;;;;7.43;5.38;;;14.10;95.90;;;;;;5075058;28;20107;-61
2021/08/25 07:07:36;;;;;;;6.90;5.22;;;14.20;96.00;;;;;;5054855;28;20024;-61
2021/08/25 07:10:02;;;;;;;10.45;5.53;;;14.30;96.00;;;;;;5063442;28;20396;-61
2021/08/25 07:12:28;;;;;;;8.73;5.93;;;14.30;96.10;;;;;;5057923;28;20574;-61
2021/08/25 07:14:54;;;;;;;7.13;4.45;;;14.40;96.10;;;;;;5074812;28;20115;-61
2021/08/25 07:20:24;;;;;;;7.43;4.35;;;14.60;96.00;;;;;;5050482;28;20115;-61
2021/08/25 07:22:50;;;;;;;9.10;4.75;;;14.70;96.10;;;;;;5068216;28;20040;-62
2021/08/25 07:25:15;;;;;;;8.48;6.00;;;14.70;96.10;;;;;;5054460;28;20503;-62
2021/08/25 07:27:41;;;;;;;10.02;5.57;;;14.80;96.10;;;;;;5057097;28;20078;-62
2021/08/25 07:30:09;;;;;;;6.95;4.53;;;14.90;96.10;;;;;;5075545;28;20028;-62
2021/08/25 07:32:35;;;;;;;7.85;4.68;;;15.00;96.00;;;;;;5075406;28;20113;-61
2021/08/25 07:35:01;;;;;;;6.28;4.28;;;15.00;95.90;;;;;;5075433;28;20089;-62
2021/08/25 07:37:27;;;;;;;8.48;5.35;;;15.10;95.80;;;;;;5057465;28;20115;-61
2021/08/25 07:39:52;;;;;;;8.23;4.97;;;15.20;95.80;;;;;;5075479;28;20095;-61
2021/08/25 07:42:18;;;;;;;6.72;4.68;;;15.30;95.70;;;;;;5075169;28;20074;-61
2021/08/25 07:44:43;;;;;;;6.53;4.78;;;15.40;95.60;;;;;;5075336;28;20488;-61
2021/08/25 07:47:09;;;;;;;6.55;4.47;;;15.50;95.50;;;;;;5075235;28;20119;-61
2021/08/25 07:49:34;;;;;;;5.22;3.90;;;15.60;95.50;;;;;;5075138;28;20052;-61
2021/08/25 07:52:01;;;;;;;8.45;4.78;;;15.60;95.40;;;;;;5074985;28;20174;-61
2021/08/25 07:54:27;;;;;;;6.18;4.25;;;15.70;95.30;;;;;;5075100;28;20059;-61
2021/08/25 07:56:53;;;;;;;6.63;3.70;;;15.80;95.30;;;;;;5057219;28;20028;-61
2021/08/25 07:59:30;;;;;;;6.72;4.15;;;15.90;95.20;;;;;;5056427;28;20021;-61
2021/08/25 08:01:56;;;;;;;5.75;3.80;;;16.00;95.00;;;;;;5072754;28;20023;-61
2021/08/25 08:04:21;;;;;;;6.30;4.25;;;16.10;95.00;;;;;;5075018;28;20028;-61
2021/08/25 08:06:50;;;;;;;6.82;3.85;;;16.20;95.00;;;;;;5057072;28;20021;-62
2021/08/25 08:09:16;;;;;;;6.38;4.03;;;16.30;94.80;;;;;;5056830;28;20024;-61
2021/08/25 08:11:41;;;;;;;5.63;4.07;;;16.40;94.80;;;;;;5074903;28;20085;-61
2021/08/25 08:14:07;;;;;;;5.28;3.60;;;16.50;94.70;;;;;;5056475;28;20116;-62
2021/08/25 08:16:35;;;;;;;4.70;3.35;;;16.50;94.50;;;;;;5056786;28;20032;-61
2021/08/25 08:19:21;;;;;;;5.72;3.67;;;16.70;94.40;;;;;;5074264;28;20043;-62
2021/08/25 08:21:48;;;;;;;5.38;3.50;;;16.80;94.30;;;;;;5043042;28;20021;-61
2021/08/25 08:24:14;;;;;;;5.93;3.50;;;16.90;94.20;;;;;;5074493;28;20025;-61
2021/08/25 08:26:40;;;;;;;6.43;3.78;;;17.00;94.10;;;;;;5056462;28;20032;-62
2021/08/25 08:29:05;;;;;;;4.55;3.22;;;17.10;93.90;;;;;;5074347;28;20021;-62
2021/08/25 08:31:32;;;;;;;6.22;3.58;;;17.20;93.70;;;;;;5056553;28;20037;-62
2021/08/25 08:33:57;;;;;;;5.90;4.05;;;17.30;93.60;;;;;;5074756;28;20059;-62
2021/08/25 08:36:23;;;;;;;4.90;3.08;;;17.40;93.40;;;;;;5056354;28;20060;-62
2021/08/25 08:39:22;;;;;;;5.05;3.47;;;17.50;93.30;;;;;;5072888;28;20028;-62
2021/08/25 08:41:47;;;;;;;5.65;3.75;;;17.60;93.10;;;;;;5063128;28;20040;-62
2021/08/25 08:44:19;;;;;;;10.32;4.82;;;17.60;93.00;;;;;;5074002;28;20024;-62
2021/08/25 08:46:48;;;;;;;5.38;3.17;;;17.70;92.70;;;;;;5056153;28;20025;-62
2021/08/25 08:49:15;;;;;;;6.80;3.55;;;17.80;92.50;;;;;;5074159;28;20025;-62
2021/08/25 08:51:41;;;;;;;5.28;3.05;;;17.90;92.30;;;;;;5055797;28;20534;-62
2021/08/25 08:54:07;;;;;;;4.68;2.65;;;18.00;92.00;;;;;;5073831;28;20043;-62
2021/08/25 08:56:34;;;;;;;4.38;2.80;;;18.10;91.80;;;;;;5074122;28;20032;-62
2021/08/25 08:59:00;;;;;;;4.18;2.97;;;18.10;91.60;;;;;;5055647;28;20025;-61
2021/08/25 09:01:28;;;;;;;4.30;2.42;;;18.20;91.40;;;;;;5056121;28;20032;-62
2021/08/25 09:03:53;;;;;;;4.78;3.25;;;18.30;90.90;;;;;;5055830;28;20017;-62
2021/08/25 09:06:19;;;;;;;5.32;3.10;;;18.40;90.40;;;;;;5055439;28;20097;-62
2021/08/25 09:11:52;;;;;;;4.72;2.88;;;18.60;89.00;;;;;;5062181;28;20127;-62
2021/08/25 09:14:18;;;;;;;5.03;2.63;;;18.60;88.80;;;;;;5055335;28;20457;-62
2021/08/25 09:16:44;;;;;;;4.93;2.70;;;18.70;88.50;;;;;;5055518;28;20052;-62
2021/08/25 09:19:16;;;;;;;3.78;2.30;;;18.80;88.00;;;;;;5055464;28;20430;-62
2021/08/25 09:21:50;;;;;;;4.20;2.13;;;18.80;87.30;;;;;;5073476;28;20024;-62
2021/08/25 09:24:20;;;;;;;4.47;2.40;;;18.90;86.60;;;;;;5073361;28;20016;-62
2021/08/25 09:27:15;;;;;;;2.97;2.00;;;19.00;85.90;;;;;;5055473;28;20025;-62
2021/08/25 09:29:43;;;;;;;5.07;2.30;;;19.10;85.30;;;;;;5051673;28;20352;-62
2021/08/25 09:32:43;;;;;;;4.65;2.15;;;19.20;85.20;;;;;;5055252;28;20529;-62
2021/08/25 09:35:09;;;;;;;4.63;2.78;;;19.30;84.50;;;;;;5041968;28;20036;-62
2021/08/25 09:37:35;;;;;;;3.88;2.50;;;19.40;82.30;;;;;;5073103;28;20438;-62
2021/08/25 09:40:12;;;;;;;3.58;2.20;;;19.40;81.90;;;;;;5071502;28;20641;-62
2021/08/25 09:42:42;;;;;;;4.45;2.63;;;19.50;81.40;;;;;;5073307;28;20047;-62
2021/08/25 09:45:22;;;;;;;3.53;1.98;;;19.60;80.80;;;;;;5072761;28;20020;-62
2021/08/25 09:47:48;;;;;;;4.90;2.10;;;19.70;80.50;;;;;;5054158;28;20020;-62
2021/08/25 09:50:32;;;;;;;3.70;1.88;;;19.70;80.00;;;;;;5071205;28;20095;-62
2021/08/25 09:52:58;;;;;;;3.10;1.77;;;19.80;79.10;;;;;;5072473;28;20542;-63
2021/08/25 09:55:38;;;;;;;5.82;1.88;;;19.90;78.80;;;;;;5072904;28;20024;-62
2021/08/25 09:58:13;;;;;;;2.28;1.52;;;20.00;78.40;;;;;;5072392;28;20052;-62
2021/08/25 10:00:39;;;;;;;4.38;2.20;;;20.10;78.00;;;;;;5072978;28;20082;-62
2021/08/25 10:03:04;;;;;;;4.00;1.73;;;20.10;77.60;;;;;;5072658;28;20020;-61
2021/08/25 10:05:30;;;;;;;3.35;1.88;;;20.20;77.00;;;;;;5067696;28;20100;-62
2021/08/25 10:08:04;;;;;;;4.15;2.03;;;20.30;76.80;;;;;;5043320;28;20024;-62
2021/08/25 10:10:36;;;;;;;3.53;2.15;;;20.40;76.50;;;;;;5070265;28;20569;-62
2021/08/25 10:13:04;;;;;;;3.70;2.00;;;20.50;76.10;;;;;;5071958;28;20044;-62
2021/08/25 10:15:44;;;;;;;3.28;1.75;;;20.60;75.90;;;;;;5053945;28;20028;-62
2021/08/25 10:18:37;;;;;;;4.30;2.08;;;20.70;76.00;;;;;;5072006;28;20016;-62
2021/08/25 10:21:03;;;;;;;4.25;1.83;;;20.80;75.10;;;;;;5027452;28;20028;-62
2021/08/25 10:23:57;;;;;;;4.32;1.70;;;20.90;75.20;;;;;;5029895;28;20032;-62
2021/08/25 10:26:23;;;;;;;2.53;1.67;;;21.10;74.50;;;;;;5058985;28;20098;-62
2021/08/25 10:29:12;;;;;;;4.35;1.83;;;21.20;73.80;;;;;;5067529;28;20066;-62
2021/08/25 10:31:49;;;;;;;3.13;1.90;;;21.40;73.00;;;;;;5045570;28;20029;-62
2021/08/25 10:34:26;;;;;;;4.03;2.17;;;21.50;72.80;;;;;;5054280;28;20430;-62
2021/08/25 10:37:12;;;;;;;3.85;1.90;;;21.60;72.30;;;;;;5054492;28;20028;-62
2021/08/25 10:39:39;;;;;;;3.22;1.65;;;21.70;71.80;;;;;;5054431;28;20028;-62
2021/08/25 10:42:06;;;;;;;6.07;1.90;;;21.90;71.40;;;;;;5054384;28;20032;-62
2021/08/25 10:44:49;;;;;;;4.63;2.10;;;22.00;70.40;;;;;;5054398;28;20036;-62
2021/08/25 10:47:53;;;;;;;3.40;2.15;;;22.10;69.70;;;;;;5053177;28;20068;-64
2021/08/25 10:50:44;;;;;;;3.50;1.90;;;22.30;69.20;;;;;;5058665;28;20116;-64
2021/08/25 10:53:28;;;;;;;4.22;1.65;;;22.40;68.30;;;;;;5023866;28;20478;-64
2021/08/25 10:56:14;;;;;;;3.05;2.10;;;22.60;67.40;;;;;;5031208;28;20059;-64
2021/08/25 10:58:56;;;;;;;2.33;1.33;;;22.80;67.00;;;;;;5024788;28;20029;-64
2021/08/25 11:01:42;;;;;;;3.42;1.83;;;22.90;66.60;;;;;;5013640;28;20053;-65
2021/08/25 11:04:13;;;;;;;2.92;2.00;;;23.10;66.70;;;;;;5012570;28;20026;-65
2021/08/25 11:06:44;;;;;;;4.55;2.85;;;23.30;68.40;;;;;;5013588;28;20032;-64
2021/08/25 11:09:13;;;;;;;3.13;2.00;;;23.70;66.10;;;;;;5031522;28;20025;-64
2021/08/25 11:11:39;;;;;;;3.58;2.58;;;25.80;65.40;;;;;;5013968;28;20087;-64
2021/08/25 11:14:05;;;;;;;4.70;2.60;;;27.90;60.60;;;;;;5031337;28;20171;-64
2021/08/25 11:16:30;;;;;;;2.67;1.83;;;29.70;56.30;;;;;;5014404;28;20459;-65
2021/08/25 11:18:56;;;;;;;2.78;1.83;;;31.90;54.10;;;;;;5031864;28;20068;-65
2021/08/25 11:21:21;;;;;;;2.72;2.15;;;33.90;51.20;;;;;;5031922;28;20020;-65
2021/08/25 11:23:54;;;;;;;3.20;2.17;;;35.50;48.70;;;;;;5006343;28;20117;-65
2021/08/25 11:26:21;;;;;;;3.13;2.30;;;36.70;46.20;;;;;;5032192;28;20032;-65
2021/08/25 11:28:46;;;;;;;3.30;2.13;;;37.30;43.70;;;;;;5014503;28;20049;-65
2021/08/25 11:31:13;;;;;;;3.33;2.22;;;37.00;43.00;;;;;;5009360;28;20025;-65
2021/08/25 11:33:45;;;;;;;3.28;2.63;;;35.90;43.10;;;;;;5013401;28;20548;-65
2021/08/25 11:36:11;;;;;;;3.63;2.50;;;34.60;44.30;;;;;;5032540;28;20429;-65
2021/08/25 11:39:12;;;;;;;;;;;;;;;;;;;;;
2021/08/25 11:41:45;;;;;;;3.28;2.17;;;33.00;46.60;;;;;;5031887;28;20040;-65
2021/08/25 11:44:10;;;;;;;3.78;2.95;;;32.40;47.40;;;;;;5034456;28;20022;-65
2021/08/25 11:46:36;;;;;;;3.80;2.20;;;32.50;46.70;;;;;;5033858;28;20030;-65
2021/08/25 11:49:01;;;;;;;3.53;2.15;;;32.90;47.10;;;;;;5033617;28;20029;-65
2021/08/25 11:51:27;;;;;;;4.00;2.38;;;33.00;46.90;;;;;;5036100;28;20068;-65
2021/08/25 11:53:53;;;;;;;3.63;2.55;;;33.00;47.10;;;;;;5035296;28;20116;-65
2021/08/25 11:56:18;;;;;;;3.53;2.33;;;33.10;46.50;;;;;;5035747;28;20037;-65
2021/08/25 11:58:44;;;;;;;3.15;2.35;;;33.10;46.30;;;;;;5036691;28;20033;-65
2021/08/25 12:01:55;;;;;;;2.47;2.13;;;33.20;46.40;;;;;;5053626;28;20021;-65
2021/08/25 12:04:27;;;;;;;3.47;2.30;;;33.60;46.40;;;;;;5052169;28;20033;-65
2021/08/25 12:06:54;;;;;;;4.03;2.38;;;33.80;46.20;;;;;;5053808;28;20025;-65
2021/08/25 12:09:35;;;;;;;3.63;2.60;;;33.90;46.00;;;;;;5052802;28;20028;-65
2021/08/25 12:12:01;;;;;;;3.08;2.58;;;34.00;45.50;;;;;;5053291;28;20386;-65
2021/08/25 12:14:27;;;;;;;2.83;2.28;;;34.00;45.80;;;;;;5035313;28;20105;-65
2021/08/25 12:17:08;;;;;;;3.70;2.58;;;34.30;45.70;;;;;;5054315;28;20104;-65
2021/08/25 12:19:36;;;;;;;4.20;3.15;;;34.50;45.30;;;;;;5053488;28;20040;-65
2021/08/25 12:22:20;;;;;;;5.15;3.53;;;34.50;45.10;;;;;;5051809;28;20071;-65
2021/08/25 12:24:45;;;;;;;2.50;2.28;;;34.20;44.50;;;;;;5051139;28;20029;-65
2021/08/25 12:27:12;;;;;;;3.10;2.45;;;34.40;45.00;;;;;;5036270;28;20029;-65
2021/08/25 12:29:42;;;;;;;3.97;2.70;;;34.60;44.50;;;;;;5036660;28;20060;-66
2021/08/25 12:32:08;;;;;;;4.60;2.70;;;34.70;44.50;;;;;;5054120;28;20499;-66
2021/08/25 12:34:34;;;;;;;3.47;2.63;;;34.80;44.40;;;;;;5054278;28;20037;-66
2021/08/25 12:37:01;;;;;;;3.97;2.90;;;34.90;44.30;;;;;;5054277;28;20059;-66
2021/08/25 12:39:28;;;;;;;3.28;2.67;;;34.90;43.60;;;;;;5036502;28;20393;-65
2021/08/25 12:41:56;;;;;;;2.95;2.65;;;34.90;43.80;;;;;;5053936;28;20025;-65
2021/08/25 12:44:22;;;;;;;2.40;2.08;;;34.80;43.90;;;;;;5053929;28;20021;-65
2021/08/25 12:46:58;;;;;;;3.60;2.40;;;34.60;44.30;;;;;;5027524;28;20080;-66
2021/08/25 12:49:35;;;;;;;2.58;2.38;;;34.50;44.50;;;;;;5036291;28;20017;-65
2021/08/25 12:52:02;;;;;;;3.20;2.20;;;34.50;44.70;;;;;;5052458;28;20045;-66
2021/08/25 12:54:27;;;;;;;2.83;2.50;;;34.60;44.70;;;;;;5053784;28;20024;-66
2021/08/25 12:56:54;;;;;;;4.38;2.80;;;34.70;44.20;;;;;;5054049;28;20021;-66
2021/08/25 12:59:20;;;;;;;4.35;2.65;;;34.70;43.50;;;;;;5053548;28;20457;-65
2021/08/25 13:02:03;;;;;;;4.30;2.00;;;34.70;43.50;;;;;;5052365;28;20028;-65